Time;durP1;ratioP1;P1;durP2;ratioP2;P2;SDS_P1;SDS_P2;PMS_P1;PMS_P2;Temp;Humidity;BMP_temperature;BMP_pressure;BME280_temperature;BME280_humidity;BME280_pressure;Samples;Min_cycle;Max_cycle;Signal;HPM_P1;HPM_P2
2022/04/26 03:36:37;;;;;;;54.72;32.40;;;8.30;99.90;;;;;;5056981;28;20039;-69
2022/04/26 03:39:03;;;;;;;51.33;31.73;;;8.30;99.90;;;;;;5068537;28;20021;-69
2022/04/26 03:41:29;;;;;;;52.55;33.33;;;8.30;99.90;;;;;;5063675;28;20064;-68
2022/04/26 03:43:55;;;;;;;52.28;33.03;;;8.30;99.90;;;;;;5053398;28;20443;-69
2022/04/26 03:46:21;;;;;;;50.17;32.78;;;8.20;99.90;;;;;;5057495;28;20103;-69
2022/04/26 03:48:46;;;;;;;49.90;33.03;;;8.20;99.90;;;;;;5064853;28;20029;-69
2022/04/26 03:51:12;;;;;;;56.05;33.03;;;8.20;99.90;;;;;;5063860;28;20119;-69
2022/04/26 03:53:39;;;;;;;52.53;31.88;;;8.20;99.90;;;;;;5063734;28;20028;-69
2022/04/26 03:56:05;;;;;;;50.08;31.90;;;8.20;99.90;;;;;;5052881;28;20121;-69
2022/04/26 03:58:31;;;;;;;54.33;32.85;;;8.20;99.90;;;;;;5060847;28;20138;-69
2022/04/26 04:00:57;;;;;;;48.38;30.75;;;8.20;99.90;;;;;;5052747;28;20082;-69
2022/04/26 04:03:23;;;;;;;51.17;31.67;;;8.20;99.90;;;;;;5053295;28;20121;-69
2022/04/26 04:05:48;;;;;;;53.33;32.72;;;8.20;99.90;;;;;;5060351;28;20630;-69
2022/04/26 04:08:14;;;;;;;53.60;32.17;;;8.20;99.90;;;;;;5056800;28;20086;-70
2022/04/26 04:10:40;;;;;;;50.65;31.63;;;8.10;99.90;;;;;;4343965;28;10001171;-70
2022/04/26 04:13:05;;;;;;;56.90;33.55;;;8.10;99.90;;;;;;5033110;28;20041;-70
2022/04/26 04:15:31;;;;;;;55.42;31.75;;;8.10;99.90;;;;;;5041113;28;20059;-70
2022/04/26 04:17:57;;;;;;;54.70;32.42;;;8.20;99.90;;;;;;5027287;28;20036;-70
2022/04/26 04:20:23;;;;;;;53.90;32.85;;;8.10;99.90;;;;;;5020482;28;20033;-70
2022/04/26 04:22:48;;;;;;;57.60;33.90;;;8.20;99.90;;;;;;5031679;28;20068;-69
2022/04/26 04:25:15;;;;;;;56.67;33.33;;;8.10;99.90;;;;;;5026045;28;20037;-69
2022/04/26 04:27:42;;;;;;;51.95;33.05;;;8.10;99.90;;;;;;5026967;28;20060;-70
2022/04/26 04:30:08;;;;;;;59.75;33.22;;;8.20;99.90;;;;;;5028163;28;20032;-70
2022/04/26 04:32:34;;;;;;;56.47;33.50;;;8.20;99.90;;;;;;5037882;28;20064;-69
2022/04/26 04:35:00;;;;;;;57.58;34.50;;;8.20;99.90;;;;;;5032031;28;20029;-69
2022/04/26 04:37:26;;;;;;;53.47;33.10;;;8.20;99.90;;;;;;5039953;28;20107;-69
2022/04/26 04:39:51;;;;;;;56.38;34.15;;;8.20;99.90;;;;;;5018896;28;20585;-69
2022/04/26 04:42:17;;;;;;;58.35;33.15;;;8.20;99.90;;;;;;5032089;28;20025;-69
2022/04/26 04:44:43;;;;;;;58.05;34.53;;;8.20;99.90;;;;;;5063264;28;20091;-69
2022/04/26 04:47:08;;;;;;;57.08;33.63;;;8.20;99.90;;;;;;5056922;28;20037;-69
2022/04/26 04:49:34;;;;;;;54.45;33.05;;;8.20;99.90;;;;;;5058311;28;20021;-69
2022/04/26 04:51:59;;;;;;;57.80;33.58;;;8.20;99.90;;;;;;5045905;28;20028;-70
2022/04/26 04:54:25;;;;;;;55.65;33.33;;;8.20;99.90;;;;;;5060411;28;20025;-69
2022/04/26 04:56:51;;;;;;;56.40;34.03;;;8.20;99.90;;;;;;5050539;28;20542;-70
2022/04/26 04:59:17;;;;;;;55.28;34.42;;;8.20;99.90;;;;;;5057546;28;20121;-69
2022/04/26 05:01:43;;;;;;;55.22;33.90;;;8.20;99.90;;;;;;5059091;28;20107;-70
2022/04/26 05:04:09;;;;;;;57.38;35.30;;;8.20;99.90;;;;;;5059571;28;20036;-69
2022/04/26 05:06:34;;;;;;;58.03;34.53;;;8.20;99.90;;;;;;5056766;28;20336;-69
2022/04/26 05:09:00;;;;;;;56.75;34.35;;;8.20;99.90;;;;;;5064719;28;20090;-69
2022/04/26 05:11:26;;;;;;;58.15;35.25;;;8.20;99.90;;;;;;5055839;28;20020;-69
2022/04/26 05:13:51;;;;;;;55.63;34.47;;;8.20;99.90;;;;;;5060738;28;20621;-70
2022/04/26 05:16:17;;;;;;;56.50;34.67;;;8.20;99.90;;;;;;5061863;28;20025;-69
2022/04/26 05:18:43;;;;;;;61.63;35.35;;;8.20;99.90;;;;;;5058569;28;20032;-69
2022/04/26 05:21:14;;;;;;;55.70;35.10;;;8.20;99.90;;;;;;5062983;28;20044;-69
2022/04/26 05:26:26;;;;;;;54.60;34.05;;;8.30;99.90;;;;;;5062000;28;20035;-68
2022/04/26 05:28:51;;;;;;;56.80;33.70;;;8.30;99.90;;;;;;5063866;28;20233;-69
2022/04/26 05:31:17;;;;;;;60.58;35.70;;;8.30;99.90;;;;;;5051510;28;20017;-69
2022/04/26 05:33:43;;;;;;;56.65;36.13;;;8.30;99.90;;;;;;5057970;28;20038;-69
2022/04/26 05:36:09;;;;;;;58.60;34.08;;;8.40;99.90;;;;;;5055354;28;20050;-69
2022/04/26 05:38:35;;;;;;;59.97;34.72;;;8.40;99.90;;;;;;5052963;28;21222;-68
2022/04/26 05:41:02;;;;;;;60.78;34.72;;;8.40;99.90;;;;;;5054000;28;20321;-69
2022/04/26 05:43:27;;;;;;;55.60;34.40;;;8.40;99.90;;;;;;5052141;28;20500;-69
2022/04/26 05:45:53;;;;;;;58.75;34.80;;;8.40;99.90;;;;;;5056478;28;20030;-69
2022/04/26 05:48:19;;;;;;;58.80;33.95;;;8.50;99.90;;;;;;5059247;28;20067;-69
2022/04/26 05:50:44;;;;;;;57.78;34.95;;;8.50;99.90;;;;;;5056210;28;20028;-68
2022/04/26 05:53:10;;;;;;;59.63;35.78;;;8.60;99.90;;;;;;5059794;28;20032;-69
2022/04/26 05:55:36;;;;;;;55.72;33.65;;;8.60;99.90;;;;;;5056870;28;20730;-69
2022/04/26 05:58:04;;;;;;;57.47;34.60;;;8.70;99.90;;;;;;5054727;28;20095;-69
2022/04/26 06:00:30;;;;;;;59.17;33.97;;;8.70;99.90;;;;;;5055895;28;20630;-68
2022/04/26 06:02:57;;;;;;;55.28;33.83;;;8.70;99.90;;;;;;5055173;28;20502;-69
2022/04/26 06:05:22;;;;;;;55.03;33.15;;;8.80;99.90;;;;;;5054162;28;20477;-69
2022/04/26 06:07:49;;;;;;;55.67;33.60;;;8.80;99.90;;;;;;5058906;28;20020;-69
2022/04/26 06:10:15;;;;;;;53.42;32.72;;;8.90;99.90;;;;;;5055217;28;20496;-69
2022/04/26 06:12:44;;;;;;;54.47;33.05;;;8.90;99.90;;;;;;5057324;28;20103;-69
2022/04/26 06:15:10;;;;;;;52.92;32.03;;;9.00;99.90;;;;;;5056218;28;20032;-69
2022/04/26 06:17:36;;;;;;;54.47;34.33;;;9.00;99.90;;;;;;5054286;28;20499;-69
2022/04/26 06:20:03;;;;;;;58.25;34.10;;;9.00;99.90;;;;;;5048198;28;20065;-70
2022/04/26 06:22:28;;;;;;;58.22;34.28;;;9.00;99.90;;;;;;5057563;28;20029;-69
2022/04/26 06:24:54;;;;;;;55.88;33.80;;;9.10;99.90;;;;;;5061038;28;20117;-69
2022/04/26 06:27:20;;;;;;;51.92;33.05;;;9.10;99.90;;;;;;5061953;28;20119;-69
2022/04/26 06:29:46;;;;;;;56.22;33.30;;;9.20;99.90;;;;;;5055990;28;20111;-69
2022/04/26 06:32:12;;;;;;;55.70;33.85;;;9.20;99.90;;;;;;5047613;28;20456;-70
2022/04/26 06:34:37;;;;;;;55.90;33.92;;;9.20;99.90;;;;;;5043841;28;20338;-69
2022/04/26 06:37:03;;;;;;;61.35;34.90;;;9.20;99.90;;;;;;5056428;28;20032;-69
2022/04/26 06:39:28;;;;;;;58.38;35.08;;;9.20;99.90;;;;;;5053663;28;20029;-69
2022/04/26 06:41:54;;;;;;;60.03;36.15;;;9.20;99.90;;;;;;5057383;28;20029;-69
2022/04/26 06:44:20;;;;;;;62.15;36.65;;;9.20;99.90;;;;;;5055141;28;20280;-69
2022/04/26 06:46:46;;;;;;;60.78;36.42;;;9.20;99.90;;;;;;5054462;28;20229;-69
2022/04/26 06:49:11;;;;;;;63.75;36.85;;;9.30;99.90;;;;;;5053378;28;20021;-69
2022/04/26 06:51:44;;;;;;;63.38;37.30;;;9.20;99.90;;;;;;5050069;28;20078;-69
2022/04/26 06:54:10;;;;;;;67.65;37.30;;;9.30;99.90;;;;;;5051727;28;20588;-69
2022/04/26 06:56:35;;;;;;;69.35;37.00;;;9.40;99.90;;;;;;5054095;28;20098;-69
2022/04/26 06:59:01;;;;;;;65.45;38.42;;;9.40;99.90;;;;;;5049950;28;20028;-70
2022/04/26 07:01:27;;;;;;;64.90;37.45;;;9.40;99.90;;;;;;5050370;28;20110;-69
2022/04/26 07:03:53;;;;;;;66.75;38.05;;;9.40;99.90;;;;;;5054640;28;20154;-69
2022/04/26 07:06:19;;;;;;;64.80;37.75;;;9.40;99.90;;;;;;5050669;28;20099;-69
2022/04/26 07:08:44;;;;;;;61.10;36.45;;;9.40;99.90;;;;;;5055904;28;20391;-69
2022/04/26 07:11:10;;;;;;;58.88;36.35;;;9.50;99.90;;;;;;5055829;28;20028;-69
2022/04/26 07:13:36;;;;;;;59.45;36.33;;;9.50;99.90;;;;;;5059727;28;20048;-69
2022/04/26 07:16:01;;;;;;;56.30;33.75;;;9.60;99.90;;;;;;5058752;28;20033;-69
2022/04/26 07:18:27;;;;;;;61.58;36.38;;;9.60;99.90;;;;;;5055874;28;20568;-69
2022/04/26 07:20:53;;;;;;;56.17;35.67;;;9.70;99.90;;;;;;5051317;28;20025;-69
2022/04/26 07:23:19;;;;;;;60.00;35.60;;;9.70;99.90;;;;;;5059030;28;20041;-69
2022/04/26 07:25:44;;;;;;;59.53;35.03;;;9.70;99.90;;;;;;5051307;28;20028;-69
2022/04/26 07:28:10;;;;;;;55.30;35.83;;;9.80;99.90;;;;;;5049841;28;20423;-69
2022/04/26 07:30:35;;;;;;;61.95;34.80;;;9.90;99.90;;;;;;5054101;28;20048;-69
2022/04/26 07:35:50;;;;;;;56.28;32.58;;;10.00;99.90;;;;;;5047303;28;20035;-68
2022/04/26 07:38:15;;;;;;;55.53;32.63;;;10.10;99.90;;;;;;5065820;28;20021;-68
2022/04/26 07:40:42;;;;;;;53.88;33.05;;;10.10;99.90;;;;;;5062055;28;20473;-68
2022/04/26 07:43:07;;;;;;;50.40;32.83;;;10.20;99.90;;;;;;5054773;28;20623;-68
2022/04/26 07:45:37;;;;;;;52.80;32.72;;;10.20;99.90;;;;;;5077819;28;20607;-69
2022/04/26 07:48:05;;;;;;;51.50;32.13;;;10.30;99.90;;;;;;5066775;28;20036;-69
2022/04/26 07:50:31;;;;;;;50.70;32.25;;;10.40;99.90;;;;;;5055713;28;20024;-70
2022/04/26 07:52:56;;;;;;;52.20;31.63;;;10.50;99.90;;;;;;5060830;28;20503;-70
2022/04/26 07:55:22;;;;;;;47.80;30.63;;;10.60;99.90;;;;;;5055648;28;20037;-72
2022/04/26 07:57:48;;;;;;;46.90;30.30;;;10.70;99.90;;;;;;5070027;28;20024;-69
2022/04/26 08:00:15;;;;;;;46.08;29.80;;;10.70;99.90;;;;;;5055053;28;20123;-70
2022/04/26 08:02:41;;;;;;;47.20;30.83;;;10.70;99.90;;;;;;5063655;28;20040;-70
2022/04/26 08:05:06;;;;;;;47.13;31.00;;;10.80;99.90;;;;;;5064772;28;20036;-70
2022/04/26 08:07:34;;;;;;;50.13;30.98;;;10.90;99.90;;;;;;5060568;28;20050;-70
2022/04/26 08:09:59;;;;;;;44.67;29.50;;;10.90;99.90;;;;;;5059264;28;20108;-69
2022/04/26 08:12:25;;;;;;;48.65;31.98;;;11.00;99.90;;;;;;5068899;28;20028;-70
2022/04/26 08:14:51;;;;;;;44.92;29.20;;;11.00;99.90;;;;;;5059243;28;20482;-69
2022/04/26 08:17:17;;;;;;;46.53;30.13;;;11.10;99.90;;;;;;5060444;28;20029;-70
2022/04/26 08:19:43;;;;;;;49.42;31.10;;;11.10;99.90;;;;;;5059969;28;20025;-70
2022/04/26 08:22:08;;;;;;;47.05;30.70;;;11.20;99.90;;;;;;5058507;28;20387;-71
2022/04/26 08:27:30;;;;;;;49.33;30.10;;;11.20;99.90;;;;;;5060054;28;20094;-71
2022/04/26 08:29:58;;;;;;;44.80;28.40;;;11.40;99.90;;;;;;5064091;28;21026;-71
2022/04/26 08:32:28;;;;;;;42.72;29.33;;;11.40;99.90;;;;;;5053576;28;20030;-71
2022/04/26 08:34:55;;;;;;;45.00;29.50;;;11.50;99.90;;;;;;5064521;28;20086;-71
2022/04/26 08:37:23;;;;;;;41.63;29.17;;;11.50;99.90;;;;;;5062888;28;20059;-70
2022/04/26 08:39:52;;;;;;;48.80;31.08;;;11.60;99.90;;;;;;5058816;28;20116;-71
2022/04/26 08:42:42;;;;;;;44.22;30.60;;;11.60;99.90;;;;;;5059611;28;20049;-71
2022/04/26 08:45:10;;;;;;;43.00;29.60;;;11.70;99.90;;;;;;5058440;28;20033;-71
2022/04/26 08:53:07;;;;;;;47.70;29.40;;;11.80;99.90;;;;;;5066280;28;20038;-72
2022/04/26 08:55:33;;;;;;;43.60;27.83;;;11.80;99.90;;;;;;5062057;28;20058;-71
2022/04/26 08:57:59;;;;;;;38.40;27.23;;;11.90;99.90;;;;;;5055845;28;20495;-73
2022/04/26 09:00:25;;;;;;;39.53;27.48;;;12.00;99.90;;;;;;5057477;28;20036;-72
2022/04/26 09:03:05;;;;;;;38.83;26.63;;;12.00;99.90;;;;;;5059329;28;20673;-72
2022/04/26 09:05:31;;;;;;;41.75;26.75;;;12.10;99.90;;;;;;5058594;28;20037;-72
2022/04/26 09:07:58;;;;;;;38.60;26.52;;;12.20;99.90;;;;;;5059744;28;20032;-72
2022/04/26 09:10:25;;;;;;;38.20;25.73;;;12.10;99.90;;;;;;5057084;28;20035;-72
2022/04/26 09:13:14;;;;;;;44.33;28.45;;;12.20;99.90;;;;;;5056909;28;20388;-72
2022/04/26 09:15:51;;;;;;;36.85;26.15;;;12.30;99.90;;;;;;5055142;28;20037;-72
2022/04/26 09:18:24;;;;;;;39.33;25.98;;;12.30;99.90;;;;;;5053627;28;20056;-72
2022/04/26 09:21:12;;;;;;;40.00;27.95;;;12.40;99.90;;;;;;5059066;28;20116;-72
2022/04/26 09:23:39;;;;;;;40.33;26.83;;;12.40;99.90;;;;;;5057632;28;20048;-72
2022/04/26 09:26:09;;;;;;;36.00;26.17;;;12.50;99.90;;;;;;5060443;28;20036;-72
2022/04/26 09:28:43;;;;;;;35.35;24.52;;;12.50;99.90;;;;;;5055752;28;20028;-71
2022/04/26 09:31:18;;;;;;;43.33;26.23;;;12.50;99.90;;;;;;5053270;28;20024;-72
2022/04/26 09:33:47;;;;;;;36.90;25.40;;;12.50;99.90;;;;;;5053858;28;20246;-72
2022/04/26 09:36:14;;;;;;;34.58;24.13;;;12.50;99.90;;;;;;5057777;28;20029;-72
2022/04/26 09:38:51;;;;;;;33.92;24.52;;;12.50;99.90;;;;;;5061528;28;20146;-72
2022/04/26 09:41:16;;;;;;;36.45;25.10;;;12.60;99.90;;;;;;5057354;28;20066;-72
2022/04/26 09:43:42;;;;;;;33.92;24.48;;;12.70;99.90;;;;;;5060285;28;20036;-72
2022/04/26 09:46:08;;;;;;;34.40;24.27;;;12.70;99.90;;;;;;5056265;28;20211;-72
2022/04/26 09:48:36;;;;;;;35.47;24.42;;;12.80;99.90;;;;;;5060990;28;20380;-71
2022/04/26 09:51:08;;;;;;;35.03;24.88;;;12.90;99.90;;;;;;5054376;28;20107;-71
2022/04/26 09:53:35;;;;;;;35.15;23.60;;;12.90;99.90;;;;;;5050337;28;20024;-71
2022/04/26 09:56:02;;;;;;;36.83;23.85;;;13.00;99.90;;;;;;5059306;28;20024;-71
2022/04/26 09:58:29;;;;;;;31.30;22.88;;;13.10;99.90;;;;;;5057278;28;20308;-71
2022/04/26 10:00:57;;;;;;;36.53;23.30;;;13.20;99.90;;;;;;5057496;28;20654;-71
2022/04/26 10:03:30;;;;;;;31.50;22.92;;;13.30;99.90;;;;;;5058899;28;20542;-71
2022/04/26 10:06:00;;;;;;;32.33;22.38;;;13.50;99.90;;;;;;5053651;28;20029;-71
2022/04/26 10:08:29;;;;;;;30.30;22.25;;;13.60;99.90;;;;;;5054376;28;20052;-71
2022/04/26 10:10:56;;;;;;;29.08;21.25;;;13.60;99.90;;;;;;5051432;28;20496;-71
2022/04/26 10:13:31;;;;;;;31.55;21.80;;;13.70;99.90;;;;;;5058517;28;20113;-70
2022/04/26 10:16:02;;;;;;;27.52;21.20;;;13.80;99.90;;;;;;5055106;28;20028;-69
2022/04/26 10:18:39;;;;;;;30.10;21.35;;;13.90;99.90;;;;;;5058903;28;20092;-69
2022/04/26 10:21:06;;;;;;;29.05;21.15;;;14.00;99.90;;;;;;5050929;28;20529;-70
2022/04/26 10:23:52;;;;;;;27.20;19.95;;;14.00;99.90;;;;;;5059426;28;20282;-70
2022/04/26 10:26:24;;;;;;;23.30;17.05;;;14.00;99.90;;;;;;5054596;28;20491;-72
2022/04/26 10:28:58;;;;;;;21.90;16.77;;;13.90;99.90;;;;;;5057709;28;20048;-71
2022/04/26 10:31:36;;;;;;;24.05;16.70;;;13.90;99.90;;;;;;5053561;28;20452;-71
2022/04/26 10:34:14;;;;;;;19.75;15.35;;;13.80;99.90;;;;;;5057961;28;20446;-71
2022/04/26 10:36:42;;;;;;;20.60;15.27;;;13.80;99.90;;;;;;5058669;28;20086;-71
2022/04/26 10:39:07;;;;;;;17.80;13.48;;;14.00;99.90;;;;;;5057416;28;20032;-71
2022/04/26 10:41:41;;;;;;;18.88;13.98;;;13.90;99.90;;;;;;5057464;28;20027;-71
2022/04/26 10:44:13;;;;;;;20.67;12.60;;;14.10;99.90;;;;;;5056925;28;20135;-71
2022/04/26 10:47:06;;;;;;;18.40;11.68;;;14.10;99.90;;;;;;5064029;28;20407;-71
2022/04/26 10:49:32;;;;;;;14.90;11.68;;;14.20;99.90;;;;;;5037068;28;20032;-71
2022/04/26 10:52:19;;;;;;;16.67;11.10;;;14.30;99.90;;;;;;5062749;28;20086;-71
2022/04/26 10:55:01;;;;;;;14.90;11.50;;;;;;;;;;5056972;28;20032;-71
2022/04/26 10:57:33;;;;;;;15.17;11.27;;;14.40;99.90;;;;;;5048956;28;20186;-71
2022/04/26 11:00:06;;;;;;;15.18;11.02;;;14.50;99.90;;;;;;5055545;28;20786;-71
2022/04/26 11:02:33;;;;;;;;;;;14.50;99.90;;;;;;5056776;28;20446;-69
2022/04/26 11:05:03;;;;;;;10.90;8.85;;;14.50;99.90;;;;;;5053368;28;20350;-69
2022/04/26 11:07:29;;;;;;;10.20;8.50;;;14.40;99.90;;;;;;5053883;28;20254;-70
2022/04/26 11:09:58;;;;;;;12.45;8.80;;;14.40;99.90;;;;;;5055199;28;20033;-70
2022/04/26 11:12:24;;;;;;;12.38;8.70;;;14.50;99.90;;;;;;5056876;28;20029;-69
2022/04/26 11:14:53;;;;;;;10.08;7.62;;;14.60;99.90;;;;;;4357421;28;10021606;-68
2022/04/26 11:17:19;;;;;;;10.63;8.10;;;14.70;99.90;;;;;;5047023;28;20304;-68
2022/04/26 11:19:55;;;;;;;11.23;8.68;;;14.80;99.90;;;;;;5047260;28;20055;-67
2022/04/26 11:22:22;;;;;;;10.05;8.40;;;14.80;99.90;;;;;;5051728;28;20045;-67
2022/04/26 11:30:31;;;;;;;13.43;10.60;;;15.10;99.90;;;;;;5047521;28;20031;-68
2022/04/26 11:32:59;;;;;;;13.70;10.88;;;15.10;99.90;;;;;;5052322;28;20043;-67
2022/04/26 11:35:25;;;;;;;14.68;10.75;;;15.10;99.90;;;;;;5051849;28;20037;-68
2022/04/26 11:37:53;;;;;;;12.10;10.13;;;15.10;99.90;;;;;;5059736;28;20387;-68
2022/04/26 11:40:28;;;;;;;12.50;9.95;;;15.10;99.90;;;;;;5043350;28;20025;-68
2022/04/26 11:42:56;;;;;;;12.27;9.75;;;15.20;99.90;;;;;;5054279;28;20440;-68
2022/04/26 11:45:29;;;;;;;12.60;9.68;;;15.20;99.90;;;;;;5046412;28;20845;-68
2022/04/26 11:47:56;;;;;;;10.93;8.68;;;15.30;99.90;;;;;;5054104;28;20062;-68
2022/04/26 11:50:30;;;;;;;11.90;8.50;;;15.30;99.90;;;;;;5055045;28;20032;-68
2022/04/26 11:53:03;;;;;;;11.05;8.13;;;15.10;99.90;;;;;;5060251;28;20028;-68
2022/04/26 11:55:31;;;;;;;13.43;8.65;;;15.00;99.90;;;;;;5056346;28;20036;-68
2022/04/26 11:58:14;;;;;;;8.70;7.25;;;15.00;99.90;;;;;;5064628;28;20036;-68
2022/04/26 12:00:57;;;;;;;10.48;7.53;;;14.90;99.90;;;;;;5061876;28;20028;-67
2022/04/26 12:03:40;;;;;;;8.60;6.70;;;14.90;99.90;;;;;;5049560;28;20254;-68
2022/04/26 12:06:09;;;;;;;9.52;7.13;;;14.90;99.90;;;;;;5059089;28;20035;-68
2022/04/26 12:08:36;;;;;;;8.73;6.72;;;14.80;99.90;;;;;;5058450;28;20048;-68
2022/04/26 12:11:20;;;;;;;9.38;7.40;;;14.70;99.90;;;;;;5063339;28;20021;-68
2022/04/26 12:14:16;;;;;;;9.55;7.68;;;14.60;99.90;;;;;;5064814;28;20032;-68
2022/04/26 12:16:55;;;;;;;9.73;7.65;;;14.60;99.90;;;;;;5052193;28;20127;-67
2022/04/26 12:19:33;;;;;;;10.88;7.38;;;14.60;99.90;;;;;;5063712;28;20064;-68
2022/04/26 12:22:00;;;;;;;14.80;9.02;;;14.70;99.90;;;;;;5054355;28;20344;-68
2022/04/26 12:24:29;;;;;;;9.27;7.95;;;14.70;99.90;;;;;;5060225;28;20446;-66
2022/04/26 12:27:02;;;;;;;8.52;6.40;;;14.70;99.90;;;;;;5056175;28;20512;-70
2022/04/26 12:29:37;;;;;;;8.65;6.15;;;14.80;99.90;;;;;;5058716;28;20056;-68
2022/04/26 12:32:13;;;;;;;6.93;6.03;;;14.90;99.90;;;;;;5056365;28;20453;-68
2022/04/26 12:34:46;;;;;;;6.88;5.53;;;15.00;99.90;;;;;;5059064;28;20047;-69
2022/04/26 12:37:26;;;;;;;6.30;5.00;;;15.00;99.90;;;;;;5059443;28;20090;-68
2022/04/26 12:39:54;;;;;;;5.88;4.82;;;15.00;99.90;;;;;;5061082;28;20074;-70
2022/04/26 12:42:30;;;;;;;5.90;4.57;;;14.90;99.90;;;;;;5048545;28;20093;-67
2022/04/26 12:45:12;;;;;;;6.28;4.90;;;14.80;99.90;;;;;;5060003;28;20063;-67
2022/04/26 12:50:35;;;;;;;9.27;5.15;;;14.50;99.90;;;;;;5051228;28;20038;-69
2022/04/26 12:53:08;;;;;;;6.57;5.40;;;14.30;99.90;;;;;;5056228;28;20170;-69
2022/04/26 12:55:38;;;;;;;7.15;5.07;;;14.10;99.90;;;;;;5059950;28;20043;-69
2022/04/26 12:58:09;;;;;;;8.43;5.30;;;13.90;99.90;;;;;;5056091;28;20044;-69
2022/04/26 13:00:41;;;;;;;7.38;4.80;;;13.70;99.90;;;;;;5055389;28;20377;-69
2022/04/26 13:03:08;;;;;;;7.80;5.20;;;13.60;99.90;;;;;;5051700;28;20757;-68
2022/04/26 13:05:39;;;;;;;6.60;5.03;;;13.50;99.90;;;;;;5052460;28;20501;-68
2022/04/26 13:08:05;;;;;;;5.90;4.82;;;13.40;99.90;;;;;;5056238;28;20024;-67
2022/04/26 13:10:30;;;;;;;6.53;5.15;;;13.30;99.90;;;;;;5057810;28;20045;-68
2022/04/26 13:12:56;;;;;;;7.38;5.28;;;13.20;99.90;;;;;;5064225;28;20660;-68
2022/04/26 13:15:23;;;;;;;8.60;5.80;;;13.20;99.90;;;;;;5056469;28;20527;-68
2022/04/26 13:17:49;;;;;;;8.32;5.68;;;13.10;99.90;;;;;;5049462;28;20033;-68
2022/04/26 13:20:15;;;;;;;8.25;6.43;;;13.00;99.90;;;;;;5052014;28;20028;-69
2022/04/26 13:22:41;;;;;;;8.57;6.43;;;12.90;99.90;;;;;;5057867;28;20063;-67
2022/04/26 13:25:09;;;;;;;10.13;6.55;;;12.80;99.90;;;;;;5057062;28;20056;-68
2022/04/26 13:27:36;;;;;;;9.95;6.68;;;12.70;99.90;;;;;;5063738;28;20025;-67
2022/04/26 13:30:03;;;;;;;9.65;7.10;;;12.70;99.90;;;;;;5061108;28;20028;-67
2022/04/26 13:32:30;;;;;;;7.82;7.00;;;12.70;99.90;;;;;;5055664;28;20024;-66
2022/04/26 13:34:57;;;;;;;10.18;7.47;;;12.70;99.90;;;;;;5056339;28;20560;-67
2022/04/26 13:37:24;;;;;;;8.88;7.35;;;12.70;99.90;;;;;;5054394;28;20097;-67
2022/04/26 13:39:50;;;;;;;10.50;7.78;;;12.60;99.90;;;;;;5052535;28;20482;-67
2022/04/26 13:42:17;;;;;;;12.48;9.00;;;12.60;99.90;;;;;;5057773;28;20055;-71
2022/04/26 13:44:43;;;;;;;11.15;8.43;;;12.60;99.90;;;;;;5053697;28;20039;-68
2022/04/26 13:47:09;;;;;;;17.55;12.93;;;12.50;99.90;;;;;;5061827;28;20028;-68
2022/04/26 13:49:40;;;;;;;15.50;12.60;;;12.50;99.90;;;;;;5051628;28;20034;-68
2022/04/26 13:52:09;;;;;;;19.40;14.38;;;12.50;99.90;;;;;;5054383;28;20032;-67
2022/04/26 13:54:35;;;;;;;18.33;13.32;;;12.50;99.90;;;;;;5052514;28;20037;-68
2022/04/26 13:57:00;;;;;;;16.70;13.35;;;12.50;99.90;;;;;;5058054;28;20043;-68
2022/04/26 13:59:26;;;;;;;22.00;16.80;;;12.50;99.90;;;;;;5055863;28;21058;-67
2022/04/26 14:01:53;;;;;;;25.60;18.13;;;12.40;99.90;;;;;;5048007;28;20040;-67
2022/04/26 14:04:19;;;;;;;28.13;20.42;;;12.40;99.90;;;;;;5060010;28;20116;-67
2022/04/26 14:06:46;;;;;;;27.52;19.95;;;12.40;99.90;;;;;;5054114;28;20036;-67
2022/04/26 14:09:12;;;;;;;25.98;19.50;;;12.40;99.90;;;;;;5057764;28;20109;-67
2022/04/26 14:11:38;;;;;;;28.85;20.55;;;12.40;99.90;;;;;;5057253;28;20028;-67
2022/04/26 14:22:16;;;;;;;28.38;18.30;;;12.50;99.90;;;;;;5057494;28;20514;-66
2022/04/26 14:24:43;;;;;;;25.15;17.83;;;12.60;99.90;;;;;;5057546;28;20143;-67
2022/04/26 14:27:09;;;;;;;25.30;19.02;;;12.60;99.90;;;;;;5054902;28;21524;-67
2022/04/26 14:29:35;;;;;;;25.02;18.77;;;12.60;99.90;;;;;;5049842;28;20103;-67
2022/04/26 14:32:00;;;;;;;25.05;18.33;;;12.70;99.90;;;;;;5041730;28;20060;-67
2022/04/26 14:34:26;;;;;;;27.10;17.98;;;12.80;99.90;;;;;;5056885;28;20032;-68
2022/04/26 14:36:52;;;;;;;25.55;18.10;;;12.80;99.90;;;;;;5058776;28;20502;-67
2022/04/26 14:39:17;;;;;;;26.48;19.05;;;12.90;99.90;;;;;;5046559;28;20029;-67
2022/04/26 14:41:43;;;;;;;26.70;19.37;;;13.00;99.90;;;;;;4697544;28;10000921;-66
2022/04/26 14:44:09;;;;;;;23.80;16.95;;;13.10;99.90;;;;;;5057339;28;20539;-67
2022/04/26 14:46:35;;;;;;;22.25;15.98;;;13.10;99.90;;;;;;5047532;28;20132;-68
2022/04/26 14:49:06;;;;;;;21.02;15.27;;;13.10;99.90;;;;;;5060369;28;20025;-68
2022/04/26 14:51:32;;;;;;;21.77;16.00;;;13.20;99.90;;;;;;5056901;28;20504;-67
2022/04/26 14:53:57;;;;;;;22.52;15.65;;;13.20;99.90;;;;;;5057023;28;20064;-67
2022/04/26 14:56:23;;;;;;;19.98;14.73;;;13.20;99.90;;;;;;5056205;28;20061;-67
2022/04/26 14:58:52;;;;;;;21.13;14.95;;;13.30;99.90;;;;;;5061600;28;20071;-67
2022/04/26 15:01:17;;;;;;;20.50;14.68;;;13.30;99.90;;;;;;5055558;28;20407;-67
2022/04/26 15:03:44;;;;;;;18.38;14.32;;;13.30;99.90;;;;;;5051519;28;20028;-66
2022/04/26 15:06:12;;;;;;;18.88;13.52;;;13.40;99.90;;;;;;5049923;28;20033;-66
2022/04/26 15:11:23;;;;;;;20.10;14.40;;;13.50;99.90;;;;;;5055515;28;20074;-66
2022/04/26 15:16:42;;;;;;;18.05;12.70;;;13.50;99.90;;;;;;5063558;28;20450;-67
2022/04/26 15:19:10;;;;;;;16.50;12.85;;;13.50;99.90;;;;;;5053929;28;20440;-67
2022/04/26 15:21:40;;;;;;;16.35;12.52;;;13.50;99.90;;;;;;5054216;28;20036;-66
2022/04/26 15:24:06;;;;;;;14.70;12.15;;;13.50;99.90;;;;;;5051457;28;20908;-67
2022/04/26 15:26:32;;;;;;;15.23;12.10;;;13.50;99.90;;;;;;5053154;28;20116;-67
2022/04/26 15:28:58;;;;;;;15.48;11.85;;;13.50;99.90;;;;;;5056145;28;20103;-67
2022/04/26 15:31:24;;;;;;;15.43;11.40;;;13.60;99.90;;;;;;5053630;28;20230;-67
2022/04/26 15:33:52;;;;;;;18.42;12.50;;;13.60;99.90;;;;;;5064530;28;20055;-67
2022/04/26 15:36:19;;;;;;;16.85;11.18;;;13.60;99.90;;;;;;5065594;28;20225;-67
2022/04/26 15:38:45;;;;;;;17.05;11.35;;;13.60;99.90;;;;;;5056447;28;20040;-66
2022/04/26 15:41:12;;;;;;;16.38;11.23;;;13.60;99.90;;;;;;5062851;28;20204;-67
2022/04/26 15:43:38;;;;;;;14.07;11.77;;;13.70;99.90;;;;;;5057049;28;20044;-67
2022/04/26 15:46:09;;;;;;;18.65;12.48;;;13.70;99.90;;;;;;5064764;28;20391;-67
2022/04/26 15:48:38;;;;;;;16.38;12.07;;;13.80;99.90;;;;;;5061184;28;20036;-67
2022/04/26 15:51:07;;;;;;;16.70;12.35;;;13.80;99.90;;;;;;5059523;28;20396;-67
2022/04/26 15:53:35;;;;;;;17.20;11.90;;;13.80;99.90;;;;;;5056407;28;20317;-67
2022/04/26 15:56:01;;;;;;;15.75;12.15;;;13.90;99.90;;;;;;5057842;28;20533;-67
2022/04/26 15:58:27;;;;;;;14.88;11.32;;;14.00;99.90;;;;;;5059080;28;20039;-67
2022/04/26 16:00:55;;;;;;;16.95;11.82;;;14.00;99.90;;;;;;5056830;28;20024;-67
2022/04/26 16:03:21;;;;;;;15.68;11.15;;;14.00;99.90;;;;;;5053385;28;20601;-67
2022/04/26 16:05:47;;;;;;;14.23;11.35;;;14.00;99.90;;;;;;5046002;28;20143;-67
2022/04/26 16:08:13;;;;;;;15.55;11.68;;;14.00;99.90;;;;;;5053644;28;20029;-67
2022/04/26 16:21:36;;;;;;;17.60;12.48;;;14.00;99.90;;;;;;5054990;28;20054;-66
2022/04/26 16:24:02;;;;;;;14.90;12.15;;;14.00;99.90;;;;;;5058514;28;20727;-66
2022/04/26 16:26:29;;;;;;;18.75;12.70;;;13.90;99.90;;;;;;5062613;28;20468;-66
2022/04/26 16:28:55;;;;;;;17.02;12.63;;;13.90;99.90;;;;;;5059030;28;20025;-67
2022/04/26 16:31:27;;;;;;;15.43;11.95;;;13.90;99.90;;;;;;5052344;28;20102;-66
2022/04/26 16:33:57;;;;;;;17.05;12.20;;;13.90;99.90;;;;;;5058125;28;20052;-66
2022/04/26 16:36:24;;;;;;;16.27;11.88;;;14.00;99.90;;;;;;5055162;28;20115;-66
2022/04/26 16:38:50;;;;;;;15.00;11.30;;;14.00;99.90;;;;;;5045469;28;20017;-66
2022/04/26 16:41:16;;;;;;;13.13;10.25;;;14.00;99.90;;;;;;5055076;28;20490;-66
2022/04/26 16:43:43;;;;;;;14.68;10.73;;;14.00;99.90;;;;;;5043871;28;20033;-66
2022/04/26 16:46:10;;;;;;;13.93;9.95;;;14.00;99.90;;;;;;5065024;28;20077;-67
2022/04/26 16:48:36;;;;;;;11.30;9.00;;;14.00;99.90;;;;;;5062891;28;20139;-66
2022/04/26 16:51:02;;;;;;;12.88;9.10;;;13.90;99.90;;;;;;5053254;28;20029;-66
2022/04/26 16:53:27;;;;;;;12.77;9.85;;;13.90;99.90;;;;;;5056430;28;20024;-66
2022/04/26 16:55:55;;;;;;;12.85;9.27;;;13.90;99.90;;;;;;5043565;28;20285;-66
2022/04/26 16:58:21;;;;;;;9.63;8.18;;;13.80;99.90;;;;;;5057759;28;20029;-66
2022/04/26 17:00:48;;;;;;;12.20;9.13;;;13.90;99.90;;;;;;5047346;28;20024;-66